Emory, Texas
Current Conditions -  °F | °C
As of 4:35 PM on Monday 22 Dec 2014 (Local Time) from KJDD Reporting Station
NA  
Wind Chill: 66°   Ceiling: NA
Heat Index: 66°   Visibility: 10mi
Dew Point: 41°   Wind: 8mph
Humidity: 40%   Direction: 260°W
Pressure: 29.58"   Gusts: NA
Location:  32.87°N, 95.77°W
Report Text: KJDD 222235Z AUTO 26007KT 10SM 19/05 A2958 RMK AO2
Loading
Personal Weather Stations






























Interactive Weather Map New forecast layout! Learn more

10-Day Weather Forecast

Advertisements
Track Severe Weather on mobile